sensor_id;sensor_type;location;lat;lon;timestamp;pressure;altitude;pressure_sealevel;temperature;humidity
8069;BME280;4077;43.702;24.896;2023-02-01T00:00:57;99576.91;;;2.53;100.00
8069;BME280;4077;43.702;24.896;2023-02-01T00:03:22;99576.25;;;2.57;100.00
8069;BME280;4077;43.702;24.896;2023-02-01T00:05:58;99574.97;;;2.47;100.00
8069;BME280;4077;43.702;24.896;2023-02-01T00:08:24;99585.88;;;2.45;100.00
8069;BME280;4077;43.702;24.896;2023-02-01T00:11:06;99574.22;;;2.50;100.00
8069;BME280;4077;43.702;24.896;2023-02-01T00:13:34;99572.59;;;2.52;100.00
8069;BME280;4077;43.702;24.896;2023-02-01T00:16:08;99578.56;;;2.53;100.00
8069;BME280;4077;43.702;24.896;2023-02-01T00:18:34;99553.47;;;2.23;100.00
8069;BME280;4077;43.702;24.896;2023-02-01T00:21:00;99568.28;;;2.32;100.00
8069;BME280;4077;43.702;24.896;2023-02-01T00:23:26;99562.22;;;2.10;100.00
8069;BME280;4077;43.702;24.896;2023-02-01T00:25:51;99570.53;;;2.06;100.00
8069;BME280;4077;43.702;24.896;2023-02-01T00:28:17;99541.53;;;1.85;100.00
8069;BME280;4077;43.702;24.896;2023-02-01T00:30:42;99578.03;;;2.03;100.00
8069;BME280;4077;43.702;24.896;2023-02-01T00:33:08;99570.91;;;1.96;100.00
8069;BME280;4077;43.702;24.896;2023-02-01T00:35:34;99568.13;;;1.91;100.00
8069;BME280;4077;43.702;24.896;2023-02-01T00:38:00;99561.09;;;1.86;100.00
8069;BME280;4077;43.702;24.896;2023-02-01T00:40:25;99556.31;;;1.74;100.00
8069;BME280;4077;43.702;24.896;2023-02-01T00:42:51;99576.88;;;1.79;100.00
8069;BME280;4077;43.702;24.896;2023-02-01T00:45:17;99533.03;;;1.49;100.00
8069;BME280;4077;43.702;24.896;2023-02-01T00:47:43;99530.44;;;1.47;100.00
8069;BME280;4077;43.702;24.896;2023-02-01T00:50:09;99533.91;;;1.49;100.00
8069;BME280;4077;43.702;24.896;2023-02-01T00:52:35;99551.50;;;1.62;100.00
8069;BME280;4077;43.702;24.896;2023-02-01T00:55:00;99581.81;;;1.76;100.00
8069;BME280;4077;43.702;24.896;2023-02-01T00:57:26;99572.31;;;1.72;100.00
8069;BME280;4077;43.702;24.896;2023-02-01T00:59:51;99579.66;;;1.66;100.00
8069;BME280;4077;43.702;24.896;2023-02-01T01:02:17;99573.16;;;1.54;100.00
8069;BME280;4077;43.702;24.896;2023-02-01T01:04:42;99565.16;;;1.47;100.00
8069;BME280;4077;43.702;24.896;2023-02-01T01:07:08;99563.28;;;1.60;100.00
8069;BME280;4077;43.702;24.896;2023-02-01T01:09:34;99573.25;;;1.74;100.00
8069;BME280;4077;43.702;24.896;2023-02-01T01:11:59;99559.72;;;1.75;100.00
8069;BME280;4077;43.702;24.896;2023-02-01T01:14:32;99561.22;;;1.71;100.00
8069;BME280;4077;43.702;24.896;2023-02-01T01:16:58;99551.66;;;1.66;100.00
8069;BME280;4077;43.702;24.896;2023-02-01T01:19:23;99557.03;;;1.72;100.00
8069;BME280;4077;43.702;24.896;2023-02-01T01:21:48;99550.84;;;1.67;100.00
8069;BME280;4077;43.702;24.896;2023-02-01T01:24:14;99532.97;;;1.47;100.00
8069;BME280;4077;43.702;24.896;2023-02-01T01:26:40;99550.69;;;1.63;100.00
8069;BME280;4077;43.702;24.896;2023-02-01T01:29:05;99547.22;;;1.61;100.00
8069;BME280;4077;43.702;24.896;2023-02-01T01:31:31;99528.91;;;1.33;100.00
8069;BME280;4077;43.702;24.896;2023-02-01T01:33:58;99559.63;;;1.55;100.00
8069;BME280;4077;43.702;24.896;2023-02-01T01:36:25;99545.75;;;1.31;100.00
8069;BME280;4077;43.702;24.896;2023-02-01T01:38:52;99548.56;;;1.37;100.00
8069;BME280;4077;43.702;24.896;2023-02-01T01:41:23;99547.50;;;1.32;100.00
8069;BME280;4077;43.702;24.896;2023-02-01T01:44:05;99545.59;;;1.28;100.00
8069;BME280;4077;43.702;24.896;2023-02-01T01:46:34;99541.88;;;1.21;100.00
8069;BME280;4077;43.702;24.896;2023-02-01T01:49:15;99528.22;;;1.19;100.00
8069;BME280;4077;43.702;24.896;2023-02-01T01:51:49;99545.88;;;1.34;100.00
8069;BME280;4077;43.702;24.896;2023-02-01T01:56:50;99553.50;;;1.34;100.00
8069;BME280;4077;43.702;24.896;2023-02-01T01:59:16;99537.66;;;1.22;100.00
8069;BME280;4077;43.702;24.896;2023-02-01T02:01:42;99551.56;;;1.46;100.00
8069;BME280;4077;43.702;24.896;2023-02-01T02:04:07;99548.28;;;1.49;100.00
8069;BME280;4077;43.702;24.896;2023-02-01T02:06:47;99517.94;;;1.52;100.00
8069;BME280;4077;43.702;24.896;2023-02-01T02:09:15;99554.00;;;1.79;100.00
8069;BME280;4077;43.702;24.896;2023-02-01T02:11:41;99542.63;;;1.54;100.00
8069;BME280;4077;43.702;24.896;2023-02-01T02:14:09;99550.63;;;1.62;100.00
8069;BME280;4077;43.702;24.896;2023-02-01T02:30:48;99531.16;;;1.62;100.00
8069;BME280;4077;43.702;24.896;2023-02-01T02:33:22;99547.13;;;1.78;100.00
8069;BME280;4077;43.702;24.896;2023-02-01T02:35:57;99545.38;;;1.77;100.00
8069;BME280;4077;43.702;24.896;2023-02-01T02:39:17;99538.84;;;1.82;100.00
8069;BME280;4077;43.702;24.896;2023-02-01T02:41:36;99539.94;;;1.69;100.00
8069;BME280;4077;43.702;24.896;2023-02-01T02:50:36;99554.34;;;1.69;100.00
8069;BME280;4077;43.702;24.896;2023-02-01T02:56:28;99561.09;;;1.68;100.00
8069;BME280;4077;43.702;24.896;2023-02-01T02:59:15;99563.28;;;1.60;100.00
8069;BME280;4077;43.702;24.896;2023-02-01T03:02:01;99572.31;;;1.72;100.00
8069;BME280;4077;43.702;24.896;2023-02-01T03:04:46;99565.44;;;1.71;100.00
8069;BME280;4077;43.702;24.896;2023-02-01T03:07:13;99578.91;;;1.86;100.00
8069;BME280;4077;43.702;24.896;2023-02-01T03:09:40;99584.94;;;1.88;100.00
8069;BME280;4077;43.702;24.896;2023-02-01T03:12:12;99550.28;;;1.72;100.00
8069;BME280;4077;43.702;24.896;2023-02-01T03:15:10;99534.94;;;1.53;100.00
8069;BME280;4077;43.702;24.896;2023-02-01T03:17:39;99568.16;;;1.74;100.00
8069;BME280;4077;43.702;24.896;2023-02-01T03:20:10;99576.28;;;1.84;100.00
8069;BME280;4077;43.702;24.896;2023-02-01T03:22:40;99557.81;;;1.71;100.00
8069;BME280;4077;43.702;24.896;2023-02-01T03:25:17;99574.41;;;1.80;100.00
8069;BME280;4077;43.702;24.896;2023-02-01T03:27:56;99526.22;;;1.48;100.00
8069;BME280;4077;43.702;24.896;2023-02-01T03:30:29;99562.13;;;1.72;100.00
8069;BME280;4077;43.702;24.896;2023-02-01T03:32:59;99581.59;;;1.89;100.00
8069;BME280;4077;43.702;24.896;2023-02-01T03:40:41;99568.53;;;1.81;100.00
8069;BME280;4077;43.702;24.896;2023-02-01T03:43:11;99577.25;;;1.86;100.00
8069;BME280;4077;43.702;24.896;2023-02-01T03:45:43;99561.41;;;1.74;100.00
8069;BME280;4077;43.702;24.896;2023-02-01T03:48:12;99561.09;;;1.68;100.00
8069;BME280;4077;43.702;24.896;2023-02-01T03:50:44;99559.28;;;1.83;100.00
8069;BME280;4077;43.702;24.896;2023-02-01T03:53:16;99560.81;;;1.80;100.00
8069;BME280;4077;43.702;24.896;2023-02-01T03:55:42;99560.66;;;1.77;100.00
8069;BME280;4077;43.702;24.896;2023-02-01T03:58:09;99570.19;;;1.81;100.00
8069;BME280;4077;43.702;24.896;2023-02-01T04:00:37;99576.00;;;1.96;100.00
8069;BME280;4077;43.702;24.896;2023-02-01T04:03:04;99567.19;;;1.89;100.00
8069;BME280;4077;43.702;24.896;2023-02-01T04:05:30;99577.81;;;1.81;100.00
8069;BME280;4077;43.702;24.896;2023-02-01T04:07:56;99572.72;;;1.81;100.00
8069;BME280;4077;43.702;24.896;2023-02-01T04:10:22;99578.69;;;1.81;100.00
8069;BME280;4077;43.702;24.896;2023-02-01T04:12:48;99581.47;;;1.86;100.00
8069;BME280;4077;43.702;24.896;2023-02-01T04:15:14;99577.66;;;1.78;100.00
8069;BME280;4077;43.702;24.896;2023-02-01T04:17:39;99578.81;;;1.84;100.00
8069;BME280;4077;43.702;24.896;2023-02-01T04:20:05;99575.94;;;1.77;100.00
8069;BME280;4077;43.702;24.896;2023-02-01T04:22:31;99579.72;;;1.67;100.00
8069;BME280;4077;43.702;24.896;2023-02-01T04:24:57;99549.75;;;1.61;100.00
8069;BME280;4077;43.702;24.896;2023-02-01T04:27:22;99581.47;;;1.86;100.00
8069;BME280;4077;43.702;24.896;2023-02-01T04:29:48;99588.44;;;1.90;100.00
8069;BME280;4077;43.702;24.896;2023-02-01T04:32:16;99589.44;;;1.76;100.00
8069;BME280;4077;43.702;24.896;2023-02-01T04:34:42;99506.88;;;1.33;100.00
8069;BME280;4077;43.702;24.896;2023-02-01T04:37:07;99578.84;;;1.67;100.00
8069;BME280;4077;43.702;24.896;2023-02-01T04:39:33;99578.16;;;1.71;100.00
8069;BME280;4077;43.702;24.896;2023-02-01T04:41:58;99527.81;;;1.46;100.00
8069;BME280;4077;43.702;24.896;2023-02-01T04:44:24;99578.34;;;1.74;100.00
8069;BME280;4077;43.702;24.896;2023-02-01T04:46:49;99528.22;;;1.37;100.00
8069;BME280;4077;43.702;24.896;2023-02-01T04:49:15;99539.78;;;1.48;100.00
8069;BME280;4077;43.702;24.896;2023-02-01T04:51:41;99571.84;;;1.62;100.00
8069;BME280;4077;43.702;24.896;2023-02-01T04:54:07;99502.22;;;1.25;100.00
8069;BME280;4077;43.702;24.896;2023-02-01T04:56:34;99584.00;;;1.68;100.00
8069;BME280;4077;43.702;24.896;2023-02-01T04:59:03;99557.59;;;1.48;100.00
8069;BME280;4077;43.702;24.896;2023-02-01T05:01:29;99589.97;;;1.69;100.00
8069;BME280;4077;43.702;24.896;2023-02-01T05:03:54;99591.13;;;1.75;100.00
8069;BME280;4077;43.702;24.896;2023-02-01T05:06:21;99576.81;;;1.59;100.00
8069;BME280;4077;43.702;24.896;2023-02-01T05:08:46;99585.16;;;1.75;100.00
8069;BME280;4077;43.702;24.896;2023-02-01T05:11:12;99593.66;;;1.75;100.00
8069;BME280;4077;43.702;24.896;2023-02-01T05:13:58;99562.72;;;1.66;100.00
8069;BME280;4077;43.702;24.896;2023-02-01T05:16:25;99582.19;;;1.66;100.00
8069;BME280;4077;43.702;24.896;2023-02-01T05:18:50;99586.97;;;1.77;100.00
8069;BME280;4077;43.702;24.896;2023-02-01T05:21:16;99600.00;;;1.83;100.00
8069;BME280;4077;43.702;24.896;2023-02-01T05:23:42;99601.56;;;1.63;100.00
8069;BME280;4077;43.702;24.896;2023-02-01T05:26:26;99603.97;;;1.78;100.00
8069;BME280;4077;43.702;24.896;2023-02-01T05:28:52;99591.63;;;1.68;100.00
8069;BME280;4077;43.702;24.896;2023-02-01T05:31:17;99603.84;;;1.75;100.00
8069;BME280;4077;43.702;24.896;2023-02-01T05:33:42;99611.41;;;1.74;100.00
8069;BME280;4077;43.702;24.896;2023-02-01T05:36:08;99610.38;;;1.70;100.00
8069;BME280;4077;43.702;24.896;2023-02-01T05:38:33;99593.22;;;1.48;100.00
8069;BME280;4077;43.702;24.896;2023-02-01T05:40:59;99588.78;;;1.44;100.00
8069;BME280;4077;43.702;24.896;2023-02-01T05:43:24;99612.25;;;1.56;100.00
8069;BME280;4077;43.702;24.896;2023-02-01T05:45:52;99607.63;;;1.66;100.00
8069;BME280;4077;43.702;24.896;2023-02-01T05:48:17;99613.41;;;1.45;100.00
8069;BME280;4077;43.702;24.896;2023-02-01T05:50:43;99607.94;;;1.38;100.00
8069;BME280;4077;43.702;24.896;2023-02-01T05:53:09;99592.03;;;1.42;100.00
8069;BME280;4077;43.702;24.896;2023-02-01T05:55:34;99586.25;;;1.44;100.00
8069;BME280;4077;43.702;24.896;2023-02-01T05:57:59;99580.91;;;1.40;100.00
8069;BME280;4077;43.702;24.896;2023-02-01T06:00:25;99592.34;;;1.48;100.00
8069;BME280;4077;43.702;24.896;2023-02-01T06:02:51;99587.81;;;1.42;100.00
8069;BME280;4077;43.702;24.896;2023-02-01T06:05:16;99585.28;;;1.42;100.00
8069;BME280;4077;43.702;24.896;2023-02-01T06:07:41;99590.72;;;1.32;100.00
8069;BME280;4077;43.702;24.896;2023-02-01T06:10:08;99581.00;;;1.41;100.00
8069;BME280;4077;43.702;24.896;2023-02-01T06:12:34;99579.19;;;1.39;100.00
8069;BME280;4077;43.702;24.896;2023-02-01T06:14:59;99573.28;;;1.40;100.00
8069;BME280;4077;43.702;24.896;2023-02-01T06:17:25;99587.63;;;1.55;100.00
8069;BME280;4077;43.702;24.896;2023-02-01T06:19:50;99562.31;;;1.41;100.00
8069;BME280;4077;43.702;24.896;2023-02-01T06:22:16;99606.81;;;1.67;100.00
8069;BME280;4077;43.702;24.896;2023-02-01T06:24:42;99614.66;;;1.53;100.00
8069;BME280;4077;43.702;24.896;2023-02-01T06:27:07;99601.78;;;1.50;100.00
8069;BME280;4077;43.702;24.896;2023-02-01T06:29:34;99591.47;;;1.47;100.00
8069;BME280;4077;43.702;24.896;2023-02-01T06:32:00;99606.59;;;1.44;100.00
8069;BME280;4077;43.702;24.896;2023-02-01T06:34:25;99619.69;;;1.52;100.00
8069;BME280;4077;43.702;24.896;2023-02-01T06:36:51;99622.78;;;1.46;100.00
8069;BME280;4077;43.702;24.896;2023-02-01T06:39:16;99621.28;;;1.68;100.00
8069;BME280;4077;43.702;24.896;2023-02-01T06:41:46;99623.69;;;1.82;100.00
8069;BME280;4077;43.702;24.896;2023-02-01T06:44:12;99618.38;;;1.78;100.00
8069;BME280;4077;43.702;24.896;2023-02-01T06:46:37;99606.75;;;1.83;100.00
8069;BME280;4077;43.702;24.896;2023-02-01T06:49:02;99595.47;;;1.78;100.00
8069;BME280;4077;43.702;24.896;2023-02-01T06:51:28;99628.94;;;2.03;100.00
8069;BME280;4077;43.702;24.896;2023-02-01T06:53:55;99622.16;;;2.04;100.00
8069;BME280;4077;43.702;24.896;2023-02-01T06:56:20;99607.19;;;2.10;100.00
8069;BME280;4077;43.702;24.896;2023-02-01T06:58:46;99611.28;;;2.06;100.00
8069;BME280;4077;43.702;24.896;2023-02-01T07:01:12;99610.91;;;2.16;100.00
8069;BME280;4077;43.702;24.896;2023-02-01T07:03:38;99617.88;;;2.21;100.00
8069;BME280;4077;43.702;24.896;2023-02-01T07:06:04;99607.88;;;2.25;100.00
8069;BME280;4077;43.702;24.896;2023-02-01T07:08:31;99608.47;;;2.37;100.00
8069;BME280;4077;43.702;24.896;2023-02-01T07:11:02;99597.28;;;2.34;100.00
8069;BME280;4077;43.702;24.896;2023-02-01T07:13:28;99607.41;;;2.52;100.00
8069;BME280;4077;43.702;24.896;2023-02-01T07:15:53;99618.81;;;3.58;100.00
8069;BME280;4077;43.702;24.896;2023-02-01T07:18:18;99632.66;;;4.27;100.00
8069;BME280;4077;43.702;24.896;2023-02-01T07:20:49;99628.78;;;4.16;100.00
8069;BME280;4077;43.702;24.896;2023-02-01T07:23:15;99625.25;;;5.04;100.00
8069;BME280;4077;43.702;24.896;2023-02-01T07:25:40;99652.16;;;6.74;95.03
8069;BME280;4077;43.702;24.896;2023-02-01T07:28:06;99650.06;;;7.52;82.79
8069;BME280;4077;43.702;24.896;2023-02-01T07:30:31;99653.84;;;8.36;73.77
8069;BME280;4077;43.702;24.896;2023-02-01T07:32:56;99662.69;;;8.47;70.56
8069;BME280;4077;43.702;24.896;2023-02-01T07:35:26;99661.28;;;7.24;73.76
8069;BME280;4077;43.702;24.896;2023-02-01T07:37:52;99659.66;;;6.96;79.60
8069;BME280;4077;43.702;24.896;2023-02-01T07:40:17;99655.44;;;6.13;83.50
8069;BME280;4077;43.702;24.896;2023-02-01T07:42:43;99649.06;;;5.51;95.23
8069;BME280;4077;43.702;24.896;2023-02-01T07:45:09;99637.66;;;4.93;100.00
8069;BME280;4077;43.702;24.896;2023-02-01T07:47:34;99634.09;;;4.43;100.00
8069;BME280;4077;43.702;24.896;2023-02-01T07:50:00;99634.09;;;4.21;100.00
8069;BME280;4077;43.702;24.896;2023-02-01T07:52:27;99641.91;;;4.03;100.00
8069;BME280;4077;43.702;24.896;2023-02-01T07:54:53;99614.75;;;3.63;100.00
8069;BME280;4077;43.702;24.896;2023-02-01T07:57:19;99632.47;;;3.79;100.00
8069;BME280;4077;43.702;24.896;2023-02-01T07:59:44;99627.53;;;4.05;100.00
8069;BME280;4077;43.702;24.896;2023-02-01T08:02:28;99642.41;;;4.60;100.00
8069;BME280;4077;43.702;24.896;2023-02-01T08:04:54;99628.84;;;4.85;100.00
8069;BME280;4077;43.702;24.896;2023-02-01T08:07:19;99641.00;;;5.64;100.00
8069;BME280;4077;43.702;24.896;2023-02-01T08:09:45;99661.88;;;5.76;100.00
8069;BME280;4077;43.702;24.896;2023-02-01T08:12:10;99646.63;;;5.79;100.00
8069;BME280;4077;43.702;24.896;2023-02-01T08:14:36;99643.03;;;5.74;100.00
8069;BME280;4077;43.702;24.896;2023-02-01T08:17:06;99655.72;;;5.45;100.00
8069;BME280;4077;43.702;24.896;2023-02-01T08:19:31;99657.81;;;5.32;100.00
8069;BME280;4077;43.702;24.896;2023-02-01T08:21:57;99649.56;;;5.15;100.00
8069;BME280;4077;43.702;24.896;2023-02-01T08:24:24;99633.41;;;4.93;100.00
8069;BME280;4077;43.702;24.896;2023-02-01T08:26:51;99643.22;;;4.81;100.00
8069;BME280;4077;43.702;24.896;2023-02-01T08:29:16;99643.94;;;4.79;100.00
8069;BME280;4077;43.702;24.896;2023-02-01T08:31:42;99632.22;;;4.84;100.00
8069;BME280;4077;43.702;24.896;2023-02-01T08:34:08;99645.72;;;5.04;100.00
8069;BME280;4077;43.702;24.896;2023-02-01T08:36:35;99577.03;;;4.66;100.00
8069;BME280;4077;43.702;24.896;2023-02-01T08:39:01;99647.78;;;5.14;100.00
8069;BME280;4077;43.702;24.896;2023-02-01T08:41:30;99645.09;;;5.09;100.00
8069;BME280;4077;43.702;24.896;2023-02-01T08:43:56;99654.25;;;5.28;100.00
8069;BME280;4077;43.702;24.896;2023-02-01T08:46:22;99656.53;;;5.44;100.00
8069;BME280;4077;43.702;24.896;2023-02-01T08:48:48;99636.03;;;5.43;100.00
8069;BME280;4077;43.702;24.896;2023-02-01T08:51:16;99652.31;;;5.70;100.00
8069;BME280;4077;43.702;24.896;2023-02-01T08:53:42;99661.47;;;5.64;100.00
8069;BME280;4077;43.702;24.896;2023-02-01T08:56:10;99659.31;;;5.51;100.00
8069;BME280;4077;43.702;24.896;2023-02-01T08:58:35;99630.69;;;5.37;100.00
8069;BME280;4077;43.702;24.896;2023-02-01T09:01:10;99660.75;;;5.42;100.00
8069;BME280;4077;43.702;24.896;2023-02-01T09:03:36;99656.72;;;5.25;100.00
8069;BME280;4077;43.702;24.896;2023-02-01T09:06:07;99651.91;;;5.34;100.00
8069;BME280;4077;43.702;24.896;2023-02-01T09:08:33;99615.25;;;5.61;100.00
8069;BME280;4077;43.702;24.896;2023-02-01T09:11:01;99640.06;;;6.41;95.27
8069;BME280;4077;43.702;24.896;2023-02-01T09:13:27;99649.91;;;6.56;91.06
8069;BME280;4077;43.702;24.896;2023-02-01T09:15:52;99640.97;;;6.72;89.46
8069;BME280;4077;43.702;24.896;2023-02-01T09:18:18;99637.28;;;6.92;86.28
8069;BME280;4077;43.702;24.896;2023-02-01T09:20:43;99632.81;;;6.85;85.07
8069;BME280;4077;43.702;24.896;2023-02-01T09:23:09;99620.72;;;6.81;84.85
8069;BME280;4077;43.702;24.896;2023-02-01T09:25:36;99592.63;;;6.85;84.96
8069;BME280;4077;43.702;24.896;2023-02-01T09:28:02;99608.94;;;6.88;83.69
8069;BME280;4077;43.702;24.896;2023-02-01T09:30:31;99610.06;;;6.97;85.89
8069;BME280;4077;43.702;24.896;2023-02-01T09:32:57;99604.66;;;7.20;82.39
8069;BME280;4077;43.702;24.896;2023-02-01T09:35:22;99585.78;;;7.16;81.72
8069;BME280;4077;43.702;24.896;2023-02-01T09:37:48;99607.50;;;7.29;81.27
8069;BME280;4077;43.702;24.896;2023-02-01T09:40:15;99597.63;;;7.12;80.06
8069;BME280;4077;43.702;24.896;2023-02-01T09:46:02;99589.28;;;7.20;79.30
8069;BME280;4077;43.702;24.896;2023-02-01T09:48:35;99565.09;;;7.11;81.04
8069;BME280;4077;43.702;24.896;2023-02-01T09:51:06;99579.75;;;7.14;82.48
8069;BME280;4077;43.702;24.896;2023-02-01T09:53:41;99576.09;;;7.39;79.81
8069;BME280;4077;43.702;24.896;2023-02-01T09:56:18;99534.41;;;7.15;77.33
8069;BME280;4077;43.702;24.896;2023-02-01T09:59:14;99548.44;;;6.96;77.07
8069;BME280;4077;43.702;24.896;2023-02-01T10:01:44;99571.28;;;7.18;79.48
8069;BME280;4077;43.702;24.896;2023-02-01T10:04:13;99576.25;;;7.45;79.54
8069;BME280;4077;43.702;24.896;2023-02-01T10:21:07;99568.66;;;7.50;75.41
8069;BME280;4077;43.702;24.896;2023-02-01T10:26:38;99572.13;;;7.52;73.54
8069;BME280;4077;43.702;24.896;2023-02-01T10:29:18;99555.78;;;7.48;73.18
8069;BME280;4077;43.702;24.896;2023-02-01T10:31:45;99568.84;;;7.57;72.18
8069;BME280;4077;43.702;24.896;2023-02-01T10:34:30;99555.91;;;7.54;72.58
8069;BME280;4077;43.702;24.896;2023-02-01T10:37:01;99566.31;;;7.59;71.86
8069;BME280;4077;43.702;24.896;2023-02-01T10:39:27;99544.22;;;7.31;71.56
8069;BME280;4077;43.702;24.896;2023-02-01T10:41:54;99547.78;;;7.36;72.70
8069;BME280;4077;43.702;24.896;2023-02-01T10:44:26;99554.91;;;7.48;72.98
8069;BME280;4077;43.702;24.896;2023-02-01T10:46:53;99564.31;;;7.47;71.95
8069;BME280;4077;43.702;24.896;2023-02-01T10:49:25;99495.22;;;7.22;69.76
8069;BME280;4077;43.702;24.896;2023-02-01T10:51:55;99537.91;;;7.53;68.34
8069;BME280;4077;43.702;24.896;2023-02-01T10:54:43;99552.81;;;7.67;68.36
8069;BME280;4077;43.702;24.896;2023-02-01T10:57:19;99532.91;;;7.59;67.38
8069;BME280;4077;43.702;24.896;2023-02-01T10:59:44;99513.50;;;7.70;66.50
8069;BME280;4077;43.702;24.896;2023-02-01T11:02:20;99495.13;;;7.55;66.83
8069;BME280;4077;43.702;24.896;2023-02-01T11:05:01;99489.13;;;7.54;67.57
8069;BME280;4077;43.702;24.896;2023-02-01T11:07:28;99515.75;;;7.94;66.35
8069;BME280;4077;43.702;24.896;2023-02-01T11:09:55;99517.22;;;7.83;66.04
8069;BME280;4077;43.702;24.896;2023-02-01T11:12:35;99487.09;;;7.76;66.86
8069;BME280;4077;43.702;24.896;2023-02-01T11:15:22;99490.84;;;7.91;67.13
8069;BME280;4077;43.702;24.896;2023-02-01T11:17:50;99505.16;;;7.80;66.85
8069;BME280;4077;43.702;24.896;2023-02-01T11:22:56;99490.59;;;7.81;65.92
8069;BME280;4077;43.702;24.896;2023-02-01T11:25:23;99482.91;;;7.81;66.50
8069;BME280;4077;43.702;24.896;2023-02-01T11:27:50;99461.88;;;7.59;66.87
8069;BME280;4077;43.702;24.896;2023-02-01T11:32:52;99448.25;;;7.62;65.85
8069;BME280;4077;43.702;24.896;2023-02-01T11:35:19;99476.50;;;8.01;67.55
8069;BME280;4077;43.702;24.896;2023-02-01T11:37:57;99450.06;;;7.67;68.96
8069;BME280;4077;43.702;24.896;2023-02-01T11:40:29;99475.41;;;7.90;66.79
8069;BME280;4077;43.702;24.896;2023-02-01T11:42:57;99463.00;;;7.71;66.84
8069;BME280;4077;43.702;24.896;2023-02-01T11:45:29;99465.56;;;7.71;67.90
8069;BME280;4077;43.702;24.896;2023-02-01T11:47:56;99430.69;;;7.44;67.83
8069;BME280;4077;43.702;24.896;2023-02-01T11:50:36;99465.56;;;7.71;67.65
8069;BME280;4077;43.702;24.896;2023-02-01T12:12:27;99457.41;;;7.90;70.36
8069;BME280;4077;43.702;24.896;2023-02-01T12:17:46;99461.34;;;7.74;70.21
8069;BME280;4077;43.702;24.896;2023-02-01T12:42:41;99447.72;;;7.78;67.40
8069;BME280;4077;43.702;24.896;2023-02-01T12:45:33;99456.84;;;8.03;66.80
8069;BME280;4077;43.702;24.896;2023-02-01T12:50:59;99450.00;;;8.04;67.03
8069;BME280;4077;43.702;24.896;2023-02-01T12:53:51;99448.44;;;8.10;66.95
8069;BME280;4077;43.702;24.896;2023-02-01T12:56:29;99421.81;;;8.08;66.16
8069;BME280;4077;43.702;24.896;2023-02-01T12:58:58;99443.63;;;8.27;66.19
8069;BME280;4077;43.702;24.896;2023-02-01T13:01:35;99418.59;;;8.18;66.31
8069;BME280;4077;43.702;24.896;2023-02-01T13:04:28;99443.06;;;8.42;65.61
8069;BME280;4077;43.702;24.896;2023-02-01T13:07:26;99446.78;;;8.56;64.45
8069;BME280;4077;43.702;24.896;2023-02-01T13:10:12;99444.56;;;8.31;63.47
8069;BME280;4077;43.702;24.896;2023-02-01T13:12:48;99388.16;;;7.96;64.20
8069;BME280;4077;43.702;24.896;2023-02-01T13:15:28;99440.28;;;8.31;63.82
8069;BME280;4077;43.702;24.896;2023-02-01T13:17:56;99432.41;;;8.23;63.85
8069;BME280;4077;43.702;24.896;2023-02-01T13:23:28;99429.34;;;7.99;62.41
8069;BME280;4077;43.702;24.896;2023-02-01T13:25:55;99421.56;;;7.96;61.64
8069;BME280;4077;43.702;24.896;2023-02-01T13:28:51;99424.94;;;7.95;61.27
8069;BME280;4077;43.702;24.896;2023-02-01T13:42:59;99432.31;;;8.19;61.15
8069;BME280;4077;43.702;24.896;2023-02-01T13:45:29;99410.78;;;8.14;62.80
8069;BME280;4077;43.702;24.896;2023-02-01T13:47:58;99434.03;;;8.18;62.69
8069;BME280;4077;43.702;24.896;2023-02-01T13:53:35;99428.44;;;7.97;64.02
8069;BME280;4077;43.702;24.896;2023-02-01T13:58:37;99423.09;;;7.88;62.93
8069;BME280;4077;43.702;24.896;2023-02-01T14:03:53;99436.88;;;7.90;62.72
8069;BME280;4077;43.702;24.896;2023-02-01T14:09:11;99450.53;;;7.89;62.60
8069;BME280;4077;43.702;24.896;2023-02-01T14:19:28;99456.34;;;7.80;62.32
8069;BME280;4077;43.702;24.896;2023-02-01T14:21:57;99469.09;;;7.76;61.79
8069;BME280;4077;43.702;24.896;2023-02-01T14:24:27;99454.00;;;7.52;62.10
8069;BME280;4077;43.702;24.896;2023-02-01T14:26:54;99441.41;;;7.62;62.03
8069;BME280;4077;43.702;24.896;2023-02-01T14:29:30;99462.00;;;7.65;61.26
8069;BME280;4077;43.702;24.896;2023-02-01T14:32:18;99461.88;;;7.59;61.15
8069;BME280;4077;43.702;24.896;2023-02-01T15:04:03;99437.28;;;7.33;61.63
8069;BME280;4077;43.702;24.896;2023-02-01T15:06:39;99436.03;;;7.53;61.50
8069;BME280;4077;43.702;24.896;2023-02-01T15:09:18;99453.44;;;7.65;61.16
8069;BME280;4077;43.702;24.896;2023-02-01T15:12:14;99453.13;;;7.51;61.51
8069;BME280;4077;43.702;24.896;2023-02-01T15:14:43;99454.72;;;7.46;60.96
8069;BME280;4077;43.702;24.896;2023-02-01T15:17:18;99450.53;;;7.50;61.26
8069;BME280;4077;43.702;24.896;2023-02-01T15:19:58;99445.16;;;7.40;60.81
8069;BME280;4077;43.702;24.896;2023-02-01T15:22:24;99430.94;;;7.17;61.51
8069;BME280;4077;43.702;24.896;2023-02-01T15:25:20;99447.59;;;7.34;60.81
8069;BME280;4077;43.702;24.896;2023-02-01T15:27:46;99452.41;;;7.21;61.01
8069;BME280;4077;43.702;24.896;2023-02-01T15:30:29;99452.47;;;7.24;60.80
8069;BME280;4077;43.702;24.896;2023-02-01T15:35:55;99455.88;;;7.23;60.53
8069;BME280;4077;43.702;24.896;2023-02-01T15:38:39;99458.41;;;7.21;61.20
8069;BME280;4077;43.702;24.896;2023-02-01T15:43:44;99461.38;;;7.03;60.42
8069;BME280;4077;43.702;24.896;2023-02-01T15:46:22;99459.63;;;7.01;59.64
8069;BME280;4077;43.702;24.896;2023-02-01T15:48:51;99456.94;;;6.96;59.96
8069;BME280;4077;43.702;24.896;2023-02-01T15:51:20;99467.19;;;6.96;59.69
8069;BME280;4077;43.702;24.896;2023-02-01T15:53:50;99449.81;;;6.86;59.08
8069;BME280;4077;43.702;24.896;2023-02-01T15:56:22;99457.97;;;7.04;59.65
8069;BME280;4077;43.702;24.896;2023-02-01T15:58:51;99466.56;;;7.06;59.37
8069;BME280;4077;43.702;24.896;2023-02-01T16:01:18;99458.47;;;6.90;58.60
8069;BME280;4077;43.702;24.896;2023-02-01T16:03:46;99469.78;;;6.98;59.22
8069;BME280;4077;43.702;24.896;2023-02-01T16:08:53;99470.28;;;6.83;59.83
8069;BME280;4077;43.702;24.896;2023-02-01T16:11:52;99467.56;;;6.78;60.51
8069;BME280;4077;43.702;24.896;2023-02-01T16:14:19;99464.41;;;6.55;61.13
8069;BME280;4077;43.702;24.896;2023-02-01T16:16:44;99473.88;;;6.58;61.73
8069;BME280;4077;43.702;24.896;2023-02-01T16:19:10;99472.94;;;6.54;62.34
8069;BME280;4077;43.702;24.896;2023-02-01T16:21:35;99474.69;;;6.55;62.63
8069;BME280;4077;43.702;24.896;2023-02-01T16:24:00;99465.81;;;6.44;63.09